createdAt,value
2023-01-29T00:00:25.097Z,11.2
2023-01-29T00:05:28.103Z,12
2023-01-29T00:10:25.113Z,11.1
2023-01-29T00:15:25.096Z,11
2023-01-29T00:20:25.093Z,10
2023-01-29T00:25:25.106Z,6.1
2023-01-29T00:30:25.105Z,10
2023-01-29T00:35:25.093Z,7
2023-01-29T00:40:25.105Z,6.1
2023-01-29T00:45:25.101Z,6
2023-01-29T00:50:25.120Z,6.8
2023-01-29T00:55:25.095Z,8.4
2023-01-29T01:00:25.092Z,8.3
2023-01-29T01:05:25.095Z,8.6
2023-01-29T01:10:25.115Z,9.6
2023-01-29T01:15:25.098Z,8.8
2023-01-29T01:20:25.104Z,8
2023-01-29T01:25:25.121Z,6.8
2023-01-29T01:30:25.091Z,5.4
2023-01-29T01:35:25.096Z,4.8
2023-01-29T01:40:25.107Z,4
2023-01-29T01:45:25.108Z,6.2
2023-01-29T01:50:25.111Z,4.8
2023-01-29T01:55:25.094Z,8.3
2023-01-29T02:00:25.105Z,4.6
2023-01-29T02:05:25.083Z,6.8
2023-01-29T02:10:25.101Z,8.3
2023-01-29T02:15:25.091Z,8.4
2023-01-29T02:20:25.091Z,7.6
2023-01-29T02:25:25.097Z,8
2023-01-29T02:30:25.087Z,8.4
2023-01-29T02:35:25.114Z,9.1
2023-01-29T02:40:25.094Z,11.2
2023-01-29T02:45:25.095Z,7.7
2023-01-29T02:50:25.108Z,6.7
2023-01-29T02:55:25.093Z,8.2
2023-01-29T03:00:25.097Z,7.6
2023-01-29T03:05:25.086Z,7.6
2023-01-29T03:10:25.097Z,5.7
2023-01-29T03:15:25.157Z,5.4
2023-01-29T03:20:25.104Z,5.7
2023-01-29T03:25:25.096Z,7.3
2023-01-29T03:30:25.111Z,7.8
2023-01-29T03:35:25.108Z,8.2
2023-01-29T03:40:25.111Z,6.6
2023-01-29T03:45:25.108Z,12.5
2023-01-29T03:50:25.103Z,8.4
2023-01-29T03:55:25.087Z,5.9
2023-01-29T04:00:25.093Z,0
2023-01-29T04:05:25.100Z,0
2023-01-29T04:10:25.125Z,6.5
2023-01-29T04:15:25.100Z,0
2023-01-29T04:20:25.107Z,7.1
2023-01-29T04:25:25.095Z,0
2023-01-29T04:30:25.092Z,6.8
2023-01-29T04:35:25.092Z,7.2
2023-01-29T04:40:25.098Z,7.8
2023-01-29T04:45:25.104Z,6.6
2023-01-29T04:50:25.097Z,5.4
2023-01-29T04:55:25.100Z,7.6
2023-01-29T05:00:25.095Z,7.7
2023-01-29T05:05:25.093Z,4
2023-01-29T05:10:25.101Z,4.3
2023-01-29T05:15:25.089Z,4.3
2023-01-29T05:20:25.087Z,4.9
2023-01-29T05:25:25.088Z,8.1
2023-01-29T05:30:25.097Z,7.7
2023-01-29T05:35:25.088Z,7.5
2023-01-29T05:40:25.095Z,7.4
2023-01-29T05:45:25.098Z,7
2023-01-29T05:50:25.098Z,7.8
2023-01-29T05:55:25.101Z,6.2
2023-01-29T06:00:25.099Z,8.9
2023-01-29T06:05:25.095Z,8.4
2023-01-29T06:10:25.087Z,5.3
2023-01-29T06:15:25.086Z,5.9
2023-01-29T06:20:25.110Z,5.9
2023-01-29T06:25:25.095Z,6.7
2023-01-29T06:30:25.096Z,7.2
2023-01-29T06:35:25.094Z,6.5
2023-01-29T06:40:25.095Z,6.2
2023-01-29T06:45:25.151Z,5
2023-01-29T06:50:25.088Z,4.4
2023-01-29T06:55:25.095Z,0
2023-01-29T07:00:25.084Z,0
2023-01-29T07:05:25.093Z,5.9
2023-01-29T07:10:25.105Z,5.6
2023-01-29T07:15:25.098Z,5.3
2023-01-29T07:20:25.089Z,5
2023-01-29T07:25:25.090Z,5.1
2023-01-29T07:30:25.089Z,4.5
2023-01-29T07:35:25.093Z,5.3
2023-01-29T07:40:25.095Z,7.6
2023-01-29T07:45:25.106Z,8.2
2023-01-29T07:50:25.095Z,9.4
2023-01-29T07:55:25.100Z,9.8
2023-01-29T08:00:25.110Z,10
2023-01-29T08:05:25.100Z,9.2
2023-01-29T08:10:25.104Z,6.3
2023-01-29T08:15:25.098Z,7.4
2023-01-29T08:20:25.118Z,4.4
2023-01-29T08:25:25.546Z,9.8
2023-01-29T08:30:25.097Z,11.3
2023-01-29T08:35:25.137Z,9.9
2023-01-29T08:40:25.101Z,8.4
2023-01-29T08:45:25.099Z,7.4
2023-01-29T08:50:25.095Z,13.6
2023-01-29T08:55:25.082Z,10.1
2023-01-29T09:00:25.191Z,14.2
2023-01-29T09:05:25.098Z,12.6
2023-01-29T09:10:25.255Z,11
2023-01-29T09:15:25.092Z,9.4
2023-01-29T09:20:25.106Z,15.3
2023-01-29T09:25:25.105Z,13.2
2023-01-29T09:30:25.099Z,12.8
2023-01-29T09:35:25.090Z,9.8
2023-01-29T09:40:25.112Z,6.5
2023-01-29T09:45:25.103Z,11
2023-01-29T09:50:25.110Z,12.7
2023-01-29T09:55:25.100Z,8.1
2023-01-29T10:00:25.102Z,7.7
2023-01-29T10:05:25.096Z,6.4
2023-01-29T10:10:25.095Z,9.2
2023-01-29T10:15:25.120Z,8.9
2023-01-29T10:20:25.113Z,8
2023-01-29T10:25:25.123Z,12.8
2023-01-29T10:30:25.105Z,16.4
2023-01-29T10:35:25.097Z,13.8
2023-01-29T10:40:25.098Z,10.9
2023-01-29T10:45:25.107Z,12.5
2023-01-29T10:50:25.108Z,10.3
2023-01-29T10:55:25.105Z,9.1
2023-01-29T11:00:25.109Z,9.8
2023-01-29T11:05:25.128Z,8.2
2023-01-29T11:10:25.098Z,11.9
2023-01-29T11:15:25.100Z,10
2023-01-29T11:20:25.096Z,5.6
2023-01-29T11:25:25.100Z,14.1
2023-01-29T11:30:25.101Z,15.4
2023-01-29T11:35:25.096Z,12.8
2023-01-29T11:40:25.115Z,14.9
2023-01-29T11:45:25.082Z,16.8
2023-01-29T11:50:25.096Z,16.3
2023-01-29T12:00:25.114Z,11.9
2023-01-29T12:05:25.099Z,10.9
2023-01-29T12:10:25.106Z,10.2
2023-01-29T12:15:25.168Z,12.7
2023-01-29T12:20:25.104Z,11.7
2023-01-29T12:25:25.135Z,10.1
2023-01-29T12:30:25.104Z,13.3
2023-01-29T12:35:25.101Z,16.4
2023-01-29T12:40:25.116Z,14.2
2023-01-29T12:45:25.094Z,12.9
2023-01-29T12:50:25.107Z,13.4
2023-01-29T12:55:25.097Z,17.6
2023-01-29T13:00:25.101Z,17.8
2023-01-29T13:05:25.108Z,19.2
2023-01-29T13:10:25.102Z,20.8
2023-01-29T13:15:25.101Z,15.6
2023-01-29T13:20:25.114Z,17.1
2023-01-29T13:25:25.094Z,17.1
2023-01-29T13:30:25.104Z,19
2023-01-29T13:35:25.103Z,14.4
2023-01-29T13:40:25.102Z,9.9
2023-01-29T13:45:25.104Z,10.1
2023-01-29T13:50:25.107Z,8.6
2023-01-29T13:55:25.096Z,10.5
2023-01-29T14:00:25.101Z,11.6
2023-01-29T14:05:25.107Z,13.6
2023-01-29T14:10:25.100Z,18.1
2023-01-29T14:15:25.376Z,14
2023-01-29T14:20:27.649Z,12.7
2023-01-29T14:25:25.102Z,17
2023-01-29T14:30:25.120Z,18.1
2023-01-29T14:35:25.098Z,20.6
2023-01-29T14:40:25.122Z,21.2
2023-01-29T14:45:25.117Z,15.5
2023-01-29T14:50:25.114Z,17
2023-01-29T14:55:25.106Z,21.2
2023-01-29T15:00:25.104Z,15.6
2023-01-29T15:05:25.098Z,11.8
2023-01-29T15:10:25.103Z,15
2023-01-29T15:15:27.120Z,11.2
2023-01-29T15:20:25.102Z,11.9
2023-01-29T15:25:25.092Z,13.5
2023-01-29T15:30:25.117Z,16.6
2023-01-29T15:35:25.100Z,18.3
2023-01-29T15:40:25.101Z,11.9
2023-01-29T15:45:25.098Z,12.1
2023-01-29T15:50:25.107Z,12.9
2023-01-29T15:55:25.096Z,11.7
2023-01-29T16:00:25.122Z,13.8
2023-01-29T16:05:25.104Z,16.3
2023-01-29T16:10:25.114Z,15.2
2023-01-29T16:15:25.100Z,13
2023-01-29T16:20:25.120Z,12.9
2023-01-29T16:25:25.095Z,10.7
2023-01-29T16:30:25.197Z,9.8
2023-01-29T16:35:25.119Z,8.6
2023-01-29T16:40:25.106Z,7
2023-01-29T16:45:25.093Z,8.7
2023-01-29T16:50:25.107Z,10.3
2023-01-29T16:55:25.106Z,8.3
2023-01-29T17:00:25.110Z,10
2023-01-29T17:05:25.096Z,8.7
2023-01-29T17:10:25.113Z,9.6
2023-01-29T17:15:25.096Z,10.8
2023-01-29T17:20:26.355Z,11.4
2023-01-29T17:25:25.095Z,8.3
2023-01-29T17:30:25.108Z,11.5
2023-01-29T17:35:25.123Z,11.1
2023-01-29T17:40:25.104Z,9.1
2023-01-29T17:45:25.121Z,8
2023-01-29T17:50:25.103Z,10.5
2023-01-29T17:55:25.102Z,8.8
2023-01-29T18:00:25.100Z,9.2
2023-01-29T18:05:25.092Z,5.2
2023-01-29T18:10:25.110Z,0
2023-01-29T18:15:25.082Z,4
2023-01-29T18:20:25.099Z,0
2023-01-29T18:25:25.851Z,0
2023-01-29T18:30:25.147Z,0
2023-01-29T18:35:25.101Z,0
2023-01-29T18:40:25.116Z,4.5
2023-01-29T18:45:25.100Z,0
2023-01-29T18:50:25.103Z,0
2023-01-29T18:55:25.099Z,8
2023-01-29T19:00:25.127Z,8.7
2023-01-29T19:05:25.098Z,8.8
2023-01-29T19:10:25.106Z,8.7
2023-01-29T19:15:25.094Z,8.7
2023-01-29T19:20:25.107Z,8.7
2023-01-29T19:25:25.103Z,8.8
2023-01-29T19:30:25.126Z,9.1
2023-01-29T19:35:25.087Z,8.5
2023-01-29T19:40:25.089Z,7.7
2023-01-29T19:45:37.345Z,7.9
2023-01-29T19:50:25.100Z,8.6
2023-01-29T19:55:25.105Z,7.1
2023-01-29T20:00:25.119Z,6.3
2023-01-29T20:05:25.089Z,6
2023-01-29T20:10:25.113Z,6.6
2023-01-29T20:15:25.100Z,6.7
2023-01-29T20:20:25.265Z,7.5
2023-01-29T20:25:25.125Z,8.4
2023-01-29T20:30:25.117Z,8.2
2023-01-29T20:35:25.114Z,6.2
2023-01-29T20:40:25.108Z,7.2
2023-01-29T20:45:25.112Z,9.2
2023-01-29T20:50:25.108Z,7
2023-01-29T20:55:25.103Z,9.6
2023-01-29T21:00:25.099Z,11.5
2023-01-29T21:05:25.109Z,12.9
2023-01-29T21:10:25.126Z,13.3
2023-01-29T21:15:25.094Z,12.2
2023-01-29T21:20:25.107Z,13
2023-01-29T21:25:25.102Z,13
2023-01-29T21:30:25.146Z,9.9
2023-01-29T21:35:25.112Z,8.3
2023-01-29T21:40:25.106Z,9.3
2023-01-29T21:45:25.101Z,8.7
2023-01-29T21:50:25.095Z,10
2023-01-29T21:55:25.211Z,10.7
2023-01-29T22:00:25.104Z,10.4
2023-01-29T22:05:25.103Z,11.4
2023-01-29T22:10:25.106Z,12.9
2023-01-29T22:15:25.088Z,14.9
2023-01-29T22:20:25.107Z,13.6
2023-01-29T22:25:25.105Z,16.5
2023-01-29T22:30:25.120Z,16.5
2023-01-29T22:35:25.097Z,18.8
2023-01-29T22:40:25.102Z,18.8
2023-01-29T22:45:25.090Z,14
2023-01-29T22:50:25.096Z,9.2
2023-01-29T22:55:25.106Z,14
2023-01-29T23:00:25.103Z,17.7
2023-01-29T23:05:25.085Z,20.3
2023-01-29T23:10:25.093Z,16.7
2023-01-29T23:15:25.096Z,14.6
2023-01-29T23:20:25.102Z,14.1
2023-01-29T23:25:25.100Z,11.2
2023-01-29T23:30:25.115Z,12.1
2023-01-29T23:35:25.106Z,14
2023-01-29T23:40:25.100Z,13.2
2023-01-29T23:45:25.087Z,12.9
2023-01-29T23:50:25.096Z,23.4
2023-01-29T23:55:25.086Z,14.1
